createdAt,value
2018-08-30T00:01:24.165Z,11.90
2018-08-30T00:03:52.287Z,10.17
2018-08-30T00:06:20.418Z,11.10
2018-08-30T00:08:48.495Z,10.87
2018-08-30T00:11:16.573Z,10.97
2018-08-30T00:13:44.658Z,11.27
2018-08-30T00:16:12.750Z,11.17
2018-08-30T00:18:40.844Z,11.53
2018-08-30T00:21:08.914Z,11.50
2018-08-30T00:23:36.998Z,11.30
2018-08-30T00:26:05.111Z,11.23
2018-08-30T00:28:33.192Z,11.30
2018-08-30T00:31:01.265Z,10.83
2018-08-30T00:33:29.361Z,10.57
2018-08-30T00:35:57.433Z,11.57
2018-08-30T00:38:25.497Z,11.50
2018-08-30T00:40:53.570Z,11.43
2018-08-30T00:43:21.643Z,11.97
2018-08-30T00:45:49.737Z,11.10
2018-08-30T00:48:17.825Z,11.80
2018-08-30T00:50:45.909Z,11.20
2018-08-30T00:53:13.969Z,11.47
2018-08-30T00:55:42.063Z,12.03
2018-08-30T00:58:10.142Z,11.07
2018-08-30T01:00:38.201Z,11.07
2018-08-30T01:03:06.294Z,11.33
2018-08-30T01:05:34.349Z,11.90
2018-08-30T01:08:02.426Z,12.20
2018-08-30T01:10:30.572Z,11.93
2018-08-30T01:12:58.635Z,11.37
2018-08-30T01:15:27.882Z,11.03
2018-08-30T01:17:56.472Z,11.73
2018-08-30T01:20:24.537Z,11.70
2018-08-30T01:22:52.612Z,12.40
2018-08-30T01:25:20.889Z,12.20
2018-08-30T01:27:49.228Z,11.93
2018-08-30T01:30:17.641Z,12.07
2018-08-30T01:32:45.821Z,11.40
2018-08-30T01:35:13.900Z,11.70
2018-08-30T01:37:41.970Z,11.47
2018-08-30T01:40:10.091Z,12.37
2018-08-30T01:42:38.153Z,11.93
2018-08-30T01:45:06.302Z,12.30
2018-08-30T01:47:34.422Z,11.57
2018-08-30T01:50:02.486Z,12.30
2018-08-30T01:52:30.568Z,11.77
2018-08-30T01:54:58.629Z,12.43
2018-08-30T01:57:26.696Z,11.30
2018-08-30T01:59:54.790Z,12.30
2018-08-30T02:02:22.869Z,12.33
2018-08-30T02:04:50.958Z,12.77
2018-08-30T02:07:19.017Z,12.67
2018-08-30T02:09:47.088Z,12.03
2018-08-30T02:12:15.159Z,12.63
2018-08-30T02:14:43.256Z,12.27
2018-08-30T02:17:11.341Z,12.67
2018-08-30T02:19:39.494Z,12.37
2018-08-30T02:22:07.623Z,11.97
2018-08-30T02:24:35.701Z,12.20
2018-08-30T02:27:03.769Z,12.70
2018-08-30T02:29:31.902Z,12.43
2018-08-30T02:31:59.954Z,12.77
2018-08-30T02:34:28.037Z,12.37
2018-08-30T02:36:56.166Z,12.73
2018-08-30T02:39:24.241Z,12.63
2018-08-30T02:41:52.333Z,12.10
2018-08-30T02:44:20.401Z,12.97
2018-08-30T02:46:48.471Z,13.00
2018-08-30T02:49:16.551Z,13.30
2018-08-30T02:51:44.622Z,12.33
2018-08-30T02:54:12.697Z,12.03
2018-08-30T02:56:40.772Z,12.77
2018-08-30T02:59:15.446Z,12.93
2018-08-30T03:01:43.521Z,12.90
2018-08-30T03:04:11.593Z,13.17
2018-08-30T03:06:39.678Z,13.00
2018-08-30T03:09:08.428Z,13.53
2018-08-30T03:11:36.545Z,13.73
2018-08-30T03:14:04.613Z,12.80
2018-08-30T03:16:32.774Z,13.00
2018-08-30T03:19:01.146Z,13.03
2018-08-30T03:21:29.230Z,12.87
2018-08-30T03:23:57.309Z,13.43
2018-08-30T03:26:25.378Z,18.73
2018-08-30T03:28:53.461Z,14.03
2018-08-30T03:31:21.529Z,15.17
2018-08-30T03:33:49.645Z,16.13
2018-08-30T03:36:17.712Z,14.20
2018-08-30T03:38:45.788Z,14.20
2018-08-30T03:41:13.854Z,13.33
2018-08-30T03:43:41.930Z,14.50
2018-08-30T03:46:10.043Z,13.93
2018-08-30T03:48:38.110Z,13.73
2018-08-30T03:51:06.214Z,14.53
2018-08-30T03:53:34.317Z,15.47
2018-08-30T03:56:02.404Z,14.17
2018-08-30T03:58:30.506Z,14.73
2018-08-30T04:00:58.572Z,14.67
2018-08-30T04:03:33.336Z,14.50
2018-08-30T04:06:01.402Z,14.10
2018-08-30T04:08:29.481Z,14.17
2018-08-30T04:10:57.572Z,14.60
2018-08-30T04:13:25.645Z,14.20
2018-08-30T04:15:53.728Z,13.87
2018-08-30T04:18:21.829Z,14.80
2018-08-30T04:20:49.917Z,14.43
2018-08-30T04:23:17.981Z,15.20
2018-08-30T04:25:46.052Z,14.40
2018-08-30T04:28:14.132Z,15.00
2018-08-30T04:30:42.302Z,15.17
2018-08-30T04:33:10.365Z,14.83
2018-08-30T04:35:38.433Z,14.93
2018-08-30T04:38:06.521Z,15.23
2018-08-30T04:40:34.757Z,16.80
2018-08-30T04:43:02.869Z,15.77
2018-08-30T04:45:30.964Z,15.07
2018-08-30T04:47:59.025Z,14.53
2018-08-30T04:50:27.095Z,14.37
2018-08-30T04:52:55.169Z,15.20
2018-08-30T04:55:23.266Z,14.97
2018-08-30T04:57:51.325Z,14.07
2018-08-30T05:00:19.425Z,14.40
2018-08-30T05:02:47.480Z,14.70
2018-08-30T05:05:15.544Z,14.47
2018-08-30T05:07:43.617Z,14.43
2018-08-30T05:10:11.701Z,14.60
2018-08-30T05:12:39.781Z,14.20
2018-08-30T05:15:07.858Z,13.63
2018-08-30T05:17:35.945Z,14.03
2018-08-30T05:20:04.016Z,13.90
2018-08-30T05:22:32.111Z,14.40
2018-08-30T05:25:00.434Z,13.73
2018-08-30T05:27:28.486Z,13.00
2018-08-30T05:29:56.704Z,12.67
2018-08-30T05:32:24.717Z,13.53
2018-08-30T05:34:52.813Z,12.90
2018-08-30T05:37:20.905Z,12.90
2018-08-30T05:39:48.964Z,13.27
2018-08-30T05:42:17.108Z,12.40
2018-08-30T05:44:45.225Z,12.60
2018-08-30T05:47:13.366Z,13.43
2018-08-30T05:49:41.454Z,12.50
2018-08-30T05:52:09.510Z,12.20
2018-08-30T05:54:37.582Z,12.60
2018-08-30T05:57:05.673Z,12.20
2018-08-30T05:59:33.750Z,12.00
2018-08-30T06:02:01.833Z,11.83
2018-08-30T06:04:29.958Z,12.50
2018-08-30T06:06:58.034Z,12.03
2018-08-30T06:09:26.117Z,12.10
2018-08-30T06:11:54.236Z,12.10
2018-08-30T06:14:22.319Z,12.77
2018-08-30T06:16:50.438Z,11.67
2018-08-30T06:19:18.507Z,11.70
2018-08-30T06:21:46.609Z,12.17
2018-08-30T06:24:14.685Z,11.43
2018-08-30T06:26:42.810Z,11.30
2018-08-30T06:29:10.943Z,11.40
2018-08-30T06:31:39.036Z,11.43
2018-08-30T06:34:07.288Z,11.23
2018-08-30T06:36:35.436Z,10.83
2018-08-30T06:39:04.460Z,11.10
2018-08-30T06:41:32.546Z,11.00
2018-08-30T06:44:00.654Z,9.90
2018-08-30T06:46:28.732Z,11.20
2018-08-30T06:48:56.893Z,10.90
2018-08-30T06:51:24.965Z,10.67
2018-08-30T06:53:53.040Z,11.10
2018-08-30T06:56:21.226Z,10.97
2018-08-30T06:58:49.250Z,10.40
2018-08-30T07:01:17.358Z,9.83
2018-08-30T07:03:45.426Z,9.80
2018-08-30T07:06:13.526Z,10.27
2018-08-30T07:08:41.682Z,10.13
2018-08-30T07:11:09.731Z,10.90
2018-08-30T07:13:37.813Z,10.43
2018-08-30T07:16:06.674Z,10.63
2018-08-30T07:18:34.804Z,11.10
2018-08-30T07:21:03.017Z,10.70
2018-08-30T07:23:31.123Z,10.60
2018-08-30T07:26:00.366Z,10.77
2018-08-30T07:28:28.478Z,10.77
2018-08-30T07:30:56.567Z,11.27
2018-08-30T07:33:24.668Z,11.00
2018-08-30T07:35:52.798Z,11.57
2018-08-30T07:38:20.878Z,11.27
2018-08-30T07:40:48.990Z,11.60
2018-08-30T07:43:17.096Z,11.43
2018-08-30T07:45:45.190Z,11.87
2018-08-30T07:48:13.234Z,11.70
2018-08-30T07:50:41.350Z,11.73
2018-08-30T07:53:09.408Z,12.23
2018-08-30T07:55:37.494Z,12.33
2018-08-30T07:58:05.630Z,12.07
2018-08-30T08:00:33.743Z,12.53
2018-08-30T08:03:01.829Z,13.03
2018-08-30T08:05:29.951Z,13.77
2018-08-30T08:07:58.049Z,14.17
2018-08-30T08:10:26.128Z,13.80
2018-08-30T08:12:54.219Z,14.13
2018-08-30T08:15:22.299Z,13.90
2018-08-30T08:17:50.404Z,13.97
2018-08-30T08:20:18.450Z,14.33
2018-08-30T08:22:46.570Z,14.57
2018-08-30T08:25:14.729Z,14.40
2018-08-30T08:27:42.794Z,14.73
2018-08-30T08:30:10.878Z,13.47
2018-08-30T08:32:38.985Z,14.77
2018-08-30T08:35:07.169Z,14.70
2018-08-30T08:37:35.250Z,15.27
2018-08-30T08:40:03.379Z,16.30
2018-08-30T08:42:31.468Z,15.20
2018-08-30T08:44:59.569Z,16.10
2018-08-30T08:47:27.668Z,16.80
2018-08-30T08:49:55.773Z,15.47
2018-08-30T08:52:23.879Z,16.43
2018-08-30T08:54:51.990Z,17.13
2018-08-30T08:57:20.121Z,15.87
2018-08-30T08:59:48.200Z,15.83
2018-08-30T09:02:16.325Z,16.97
2018-08-30T09:04:44.425Z,15.87
2018-08-30T09:07:12.576Z,15.23
2018-08-30T09:09:40.648Z,17.27
2018-08-30T09:12:08.741Z,16.70
2018-08-30T09:14:36.857Z,16.27
2018-08-30T09:17:04.954Z,17.60
2018-08-30T09:19:33.058Z,16.80
2018-08-30T09:22:01.277Z,17.83
2018-08-30T09:24:29.373Z,18.47
2018-08-30T09:26:57.472Z,17.83
2018-08-30T09:29:25.562Z,18.53
2018-08-30T09:31:53.663Z,18.00
2018-08-30T09:34:21.766Z,17.90
2018-08-30T09:36:49.870Z,19.77
2018-08-30T09:39:18.018Z,20.67
2018-08-30T09:41:46.109Z,19.03
2018-08-30T09:44:14.234Z,19.27
2018-08-30T09:46:42.324Z,19.87
2018-08-30T09:49:10.433Z,20.13
2018-08-30T09:51:38.537Z,20.67
2018-08-30T09:54:06.685Z,21.40
2018-08-30T09:56:34.782Z,22.00
2018-08-30T09:59:02.877Z,20.73
2018-08-30T10:01:36.441Z,22.43
2018-08-30T10:04:04.528Z,21.13
2018-08-30T10:06:32.605Z,21.97
2018-08-30T10:09:00.741Z,20.80
2018-08-30T10:11:28.906Z,22.33
2018-08-30T10:13:57.012Z,21.63
2018-08-30T10:16:25.118Z,23.40
2018-08-30T10:18:53.186Z,23.07
2018-08-30T10:21:21.353Z,23.00
2018-08-30T10:23:49.373Z,23.27
2018-08-30T10:26:17.470Z,23.83
2018-08-30T10:28:45.606Z,23.20
2018-08-30T10:31:13.706Z,24.13
2018-08-30T10:33:41.830Z,23.53
2018-08-30T10:36:09.963Z,23.40
2018-08-30T10:38:38.110Z,23.40
2018-08-30T10:41:06.345Z,21.97
2018-08-30T10:43:34.637Z,22.43
2018-08-30T10:46:02.898Z,25.27
2018-08-30T10:48:30.992Z,24.70
2018-08-30T10:50:59.301Z,24.10
2018-08-30T10:53:27.437Z,24.27
2018-08-30T10:55:55.561Z,25.70
2018-08-30T10:58:24.170Z,25.57
2018-08-30T11:00:52.249Z,25.73
2018-08-30T11:03:20.352Z,27.23
2018-08-30T11:05:48.749Z,28.47
2018-08-30T11:08:16.906Z,29.07
2018-08-30T11:10:45.034Z,30.57
2018-08-30T11:13:13.131Z,29.07
2018-08-30T11:15:41.254Z,29.13
2018-08-30T11:18:09.359Z,29.80
2018-08-30T11:20:37.530Z,28.07
2018-08-30T11:23:05.862Z,29.33
2018-08-30T11:25:40.804Z,28.87
2018-08-30T11:28:08.948Z,28.00
2018-08-30T11:30:37.039Z,30.70
2018-08-30T11:33:05.190Z,30.30
2018-08-30T11:35:33.314Z,28.43
2018-08-30T11:38:01.417Z,29.80
2018-08-30T11:40:30.290Z,29.37
2018-08-30T11:42:58.436Z,28.40
2018-08-30T11:45:26.517Z,28.27
2018-08-30T11:47:54.591Z,27.63
2018-08-30T11:50:22.689Z,30.47
2018-08-30T11:52:50.836Z,29.63
2018-08-30T11:55:18.889Z,30.13
2018-08-30T11:57:46.989Z,30.10
2018-08-30T12:00:15.040Z,30.60
2018-08-30T12:02:44.337Z,30.93
2018-08-30T12:05:12.422Z,29.80
2018-08-30T12:07:40.501Z,28.73
2018-08-30T12:10:08.620Z,30.57
2018-08-30T12:12:36.649Z,31.30
2018-08-30T12:15:04.703Z,30.13
2018-08-30T12:17:32.785Z,31.40
2018-08-30T12:20:00.845Z,28.17
2018-08-30T12:22:28.930Z,31.33
2018-08-30T12:24:56.988Z,30.40
2018-08-30T12:27:25.057Z,29.73
2018-08-30T12:29:53.205Z,30.03
2018-08-30T12:32:21.263Z,28.40
2018-08-30T12:34:49.385Z,30.00
2018-08-30T12:37:17.463Z,29.17
2018-08-30T12:39:45.577Z,31.87
2018-08-30T12:42:13.601Z,31.63
2018-08-30T12:44:41.704Z,33.03
2018-08-30T12:47:09.783Z,29.13
2018-08-30T12:49:38.187Z,30.63
2018-08-30T12:52:06.499Z,26.73
2018-08-30T12:54:34.541Z,29.13
2018-08-30T12:57:02.558Z,25.40
2018-08-30T12:59:36.285Z,24.30
2018-08-30T13:02:04.321Z,22.03
2018-08-30T13:04:32.521Z,21.63
2018-08-30T13:07:00.549Z,19.73
2018-08-30T13:09:29.168Z,19.37
2018-08-30T13:11:58.694Z,20.27
2018-08-30T13:14:26.989Z,18.87
2018-08-30T13:16:55.234Z,17.80
2018-08-30T13:19:23.489Z,16.30
2018-08-30T13:21:51.473Z,14.60
2018-08-30T13:24:19.609Z,14.67
2018-08-30T13:26:47.753Z,14.63
2018-08-30T13:29:15.955Z,15.10
2018-08-30T13:31:44.669Z,13.97
2018-08-30T13:34:13.676Z,13.63
2018-08-30T13:36:41.738Z,14.37
2018-08-30T13:39:10.913Z,14.93
2018-08-30T13:41:38.993Z,14.67
2018-08-30T13:44:08.632Z,14.20
2018-08-30T13:46:36.744Z,13.50
2018-08-30T13:49:04.988Z,12.43
2018-08-30T13:51:33.988Z,11.90
2018-08-30T13:54:01.861Z,12.10
2018-08-30T13:56:29.910Z,11.80
2018-08-30T13:58:58.034Z,13.07
2018-08-30T14:01:26.415Z,11.97
2018-08-30T14:03:54.086Z,12.53
2018-08-30T14:06:22.323Z,11.60
2018-08-30T14:09:00.081Z,12.47
2018-08-30T14:11:29.537Z,12.33
2018-08-30T14:14:02.382Z,11.90
2018-08-30T14:16:30.255Z,12.93
2018-08-30T14:18:58.410Z,12.43
2018-08-30T14:21:26.504Z,11.77
2018-08-30T14:23:54.481Z,12.03
2018-08-30T14:26:22.558Z,11.90
2018-08-30T14:28:50.659Z,11.60
2018-08-30T14:31:18.721Z,11.27
2018-08-30T14:33:46.779Z,11.77
2018-08-30T14:36:14.863Z,11.00
2018-08-30T14:38:43.025Z,10.97
2018-08-30T14:41:11.123Z,11.03
2018-08-30T14:43:39.069Z,13.57
2018-08-30T14:46:07.144Z,10.57
2018-08-30T14:48:35.227Z,9.97
2018-08-30T14:51:03.285Z,10.00
2018-08-30T14:53:31.536Z,9.57
2018-08-30T14:55:59.442Z,12.50
2018-08-30T14:58:27.498Z,9.50
2018-08-30T15:00:55.561Z,9.07
2018-08-30T15:03:23.960Z,9.03
2018-08-30T15:05:52.172Z,11.10
2018-08-30T15:08:20.104Z,8.97
2018-08-30T15:10:48.154Z,8.47
2018-08-30T15:13:16.204Z,8.37
2018-08-30T15:15:44.409Z,8.53
2018-08-30T15:18:12.412Z,8.73
2018-08-30T15:20:40.492Z,8.37
2018-08-30T15:23:09.361Z,8.07
2018-08-30T15:25:37.442Z,8.23
2018-08-30T15:28:06.023Z,8.23
2018-08-30T15:30:34.102Z,9.37
2018-08-30T15:33:02.185Z,8.90
2018-08-30T15:35:30.351Z,8.00
2018-08-30T15:37:58.408Z,7.57
2018-08-30T15:40:26.773Z,8.20
2018-08-30T15:42:54.847Z,7.80
2018-08-30T15:45:22.909Z,8.57
2018-08-30T15:47:50.999Z,8.23
2018-08-30T15:50:19.097Z,8.47
2018-08-30T15:52:47.336Z,8.30
2018-08-30T15:55:15.493Z,8.63
2018-08-30T15:57:43.594Z,8.83
2018-08-30T16:00:11.741Z,9.20
2018-08-30T16:02:39.829Z,8.03
2018-08-30T16:05:07.921Z,8.50
2018-08-30T16:07:36.346Z,8.60
2018-08-30T16:10:04.613Z,9.40
2018-08-30T16:12:32.691Z,9.30
2018-08-30T16:15:00.921Z,9.17
2018-08-30T16:17:29.297Z,9.20
2018-08-30T16:19:57.432Z,10.00
2018-08-30T16:22:36.983Z,10.40
2018-08-30T16:25:05.087Z,10.83
2018-08-30T16:27:33.280Z,11.17
2018-08-30T16:30:01.310Z,10.83
2018-08-30T16:32:29.403Z,11.10
2018-08-30T16:34:57.550Z,10.73
2018-08-30T16:37:25.631Z,11.67
2018-08-30T16:39:53.921Z,11.90
2018-08-30T16:42:22.369Z,12.00
2018-08-30T16:44:50.589Z,12.97
2018-08-30T16:47:18.722Z,13.10
2018-08-30T16:49:46.833Z,13.50
2018-08-30T16:52:14.917Z,11.67
2018-08-30T16:54:42.992Z,11.67
2018-08-30T16:57:11.125Z,12.20
2018-08-30T16:59:39.222Z,11.90
2018-08-30T17:02:07.373Z,12.23
2018-08-30T17:04:35.430Z,12.73
2018-08-30T17:07:03.521Z,13.43
2018-08-30T17:09:31.630Z,12.03
2018-08-30T17:11:59.768Z,11.93
2018-08-30T17:14:28.180Z,13.10
2018-08-30T17:16:56.341Z,13.37
2018-08-30T17:19:29.388Z,11.90
2018-08-30T17:21:57.424Z,15.57
2018-08-30T17:24:25.505Z,13.40
2018-08-30T17:26:53.593Z,13.37
2018-08-30T17:29:21.730Z,12.23
2018-08-30T17:31:49.932Z,12.23
2018-08-30T17:34:17.988Z,12.40
2018-08-30T17:36:46.111Z,12.37
2018-08-30T17:39:14.196Z,13.03
2018-08-30T17:41:42.569Z,11.27
2018-08-30T17:44:10.646Z,12.53
2018-08-30T17:46:38.800Z,12.33
2018-08-30T17:49:06.912Z,11.80
2018-08-30T17:51:35.101Z,11.50
2018-08-30T17:54:03.165Z,12.37
2018-08-30T17:56:43.569Z,12.47
2018-08-30T17:59:11.657Z,11.60
2018-08-30T18:01:39.788Z,12.53
2018-08-30T18:04:08.001Z,11.67
2018-08-30T18:06:36.080Z,11.83
2018-08-30T18:09:05.413Z,11.23
2018-08-30T18:11:33.481Z,13.47
2018-08-30T18:14:08.233Z,16.87
2018-08-30T18:16:36.348Z,12.00
2018-08-30T18:19:04.436Z,12.47
2018-08-30T18:21:32.503Z,10.57
2018-08-30T18:24:00.695Z,11.57
2018-08-30T18:26:28.788Z,11.27
2018-08-30T18:28:56.969Z,11.40
2018-08-30T18:31:25.109Z,11.57
2018-08-30T18:33:53.229Z,11.43
2018-08-30T18:36:21.335Z,10.93
2018-08-30T18:38:49.496Z,11.07
2018-08-30T18:41:17.644Z,10.67
2018-08-30T18:43:45.764Z,11.03
2018-08-30T18:46:13.838Z,10.83
2018-08-30T18:48:41.955Z,9.70
2018-08-30T18:51:10.078Z,8.90
2018-08-30T18:53:38.180Z,8.53
2018-08-30T18:56:06.488Z,8.10
2018-08-30T18:58:34.590Z,7.83
2018-08-30T19:01:02.702Z,7.60
2018-08-30T19:03:30.989Z,8.03
2018-08-30T19:05:59.187Z,9.70
2018-08-30T19:08:27.278Z,6.50
2018-08-30T19:10:55.445Z,7.20
2018-08-30T19:13:23.611Z,7.10
2018-08-30T19:15:56.914Z,6.20
2018-08-30T19:19:29.009Z,6.70
2018-08-30T19:21:57.180Z,5.37
2018-08-30T19:24:30.945Z,4.73
2018-08-30T19:26:59.140Z,5.17
2018-08-30T19:29:27.214Z,5.70
2018-08-30T19:31:55.373Z,5.70
2018-08-30T19:34:23.445Z,5.47
2018-08-30T19:36:51.609Z,6.17
2018-08-30T19:39:19.802Z,5.17
2018-08-30T19:41:47.890Z,5.47
2018-08-30T19:44:16.009Z,5.87
2018-08-30T19:46:44.182Z,5.80
2018-08-30T19:49:12.269Z,5.83
2018-08-30T19:51:40.456Z,6.07
2018-08-30T19:54:09.155Z,5.93
2018-08-30T19:56:37.240Z,5.50
2018-08-30T19:59:05.341Z,6.07
2018-08-30T20:01:33.429Z,6.27
2018-08-30T20:04:01.592Z,6.13
2018-08-30T20:06:29.664Z,6.10
2018-08-30T20:08:57.765Z,6.53
2018-08-30T20:11:25.884Z,6.53
2018-08-30T20:13:53.984Z,6.80
2018-08-30T20:16:22.224Z,6.93
2018-08-30T20:18:51.298Z,6.43
2018-08-30T20:21:19.378Z,7.13
2018-08-30T20:23:47.449Z,6.93
2018-08-30T20:26:15.504Z,7.07
2018-08-30T20:28:43.608Z,7.70
2018-08-30T20:31:11.674Z,8.10
2018-08-30T20:33:39.765Z,7.63
2018-08-30T20:36:07.859Z,7.97
2018-08-30T20:38:35.952Z,8.60
2018-08-30T20:41:04.086Z,8.03
2018-08-30T20:43:32.166Z,8.43
2018-08-30T20:46:00.254Z,8.07
2018-08-30T20:48:28.381Z,8.37
2018-08-30T20:50:56.434Z,8.30
2018-08-30T20:53:24.536Z,8.33
2018-08-30T20:55:52.696Z,9.00
2018-08-30T20:58:20.763Z,9.23
2018-08-30T21:00:48.858Z,8.93
2018-08-30T21:03:16.937Z,8.20
2018-08-30T21:05:45.097Z,8.77
2018-08-30T21:08:13.177Z,8.80
2018-08-30T21:10:41.253Z,8.10
2018-08-30T21:13:09.321Z,8.40
2018-08-30T21:15:37.399Z,8.00
2018-08-30T21:18:05.486Z,8.53
2018-08-30T21:20:33.542Z,8.10
2018-08-30T21:23:01.629Z,8.33
2018-08-30T21:25:29.708Z,8.40
2018-08-30T21:27:57.825Z,9.00
2018-08-30T21:30:25.927Z,8.70
2018-08-30T21:32:54.017Z,9.33
2018-08-30T21:35:22.143Z,9.20
2018-08-30T21:37:50.205Z,9.57
2018-08-30T21:40:18.292Z,9.53
2018-08-30T21:42:46.383Z,9.50
2018-08-30T21:45:14.513Z,9.93
2018-08-30T21:47:42.598Z,9.60
2018-08-30T21:50:10.667Z,10.57
2018-08-30T21:52:38.756Z,9.97
2018-08-30T21:55:06.821Z,10.40
2018-08-30T21:57:34.933Z,10.50
2018-08-30T22:00:03.069Z,11.40
2018-08-30T22:02:31.134Z,10.37
2018-08-30T22:04:59.232Z,10.30
2018-08-30T22:07:27.402Z,10.07
2018-08-30T22:09:55.493Z,10.27
2018-08-30T22:12:23.569Z,9.90
2018-08-30T22:14:51.675Z,9.53
2018-08-30T22:17:19.741Z,9.83
2018-08-30T22:19:47.825Z,9.57
2018-08-30T22:22:15.900Z,9.83
2018-08-30T22:24:43.940Z,9.03
2018-08-30T22:27:12.028Z,8.87
2018-08-30T22:29:40.065Z,8.77
2018-08-30T22:32:08.140Z,9.27
2018-08-30T22:34:36.225Z,9.63
2018-08-30T22:37:04.300Z,9.17
2018-08-30T22:39:32.390Z,10.67
2018-08-30T22:42:00.438Z,9.80
2018-08-30T22:44:29.412Z,9.27
2018-08-30T22:46:57.489Z,9.20
2018-08-30T22:49:25.565Z,9.30
2018-08-30T22:51:53.664Z,8.67
2018-08-30T22:54:21.719Z,9.33
2018-08-30T22:56:49.933Z,8.67
2018-08-30T22:59:18.010Z,8.97
2018-08-30T23:01:46.084Z,8.93
2018-08-30T23:04:17.050Z,8.47
2018-08-30T23:06:45.217Z,8.97
2018-08-30T23:09:13.218Z,8.73
2018-08-30T23:11:41.289Z,8.60
2018-08-30T23:14:09.371Z,8.60
2018-08-30T23:16:37.556Z,9.33
2018-08-30T23:19:05.669Z,9.10
2018-08-30T23:21:34.210Z,9.43
2018-08-30T23:24:02.268Z,10.53
2018-08-30T23:26:31.340Z,9.90
2018-08-30T23:28:59.425Z,9.40
2018-08-30T23:31:27.510Z,9.13
2018-08-30T23:33:55.620Z,8.90
2018-08-30T23:36:23.725Z,9.10
2018-08-30T23:38:51.792Z,8.77
2018-08-30T23:41:19.867Z,8.70
2018-08-30T23:43:47.945Z,9.03
2018-08-30T23:46:16.035Z,8.13
2018-08-30T23:48:44.172Z,7.77
2018-08-30T23:51:12.324Z,7.60
2018-08-30T23:53:40.422Z,7.03
2018-08-30T23:56:08.497Z,7.43
2018-08-30T23:58:48.050Z,6.50
